Time;durP1;ratioP1;P1;durP2;ratioP2;P2;SDS_P1;SDS_P2;PMS_P1;PMS_P2;Temp;Humidity;BMP_temperature;BMP_pressure;BME280_temperature;BME280_humidity;BME280_pressure;Samples;Min_cycle;Max_cycle;Signal;HPM_P1;HPM_P2
2023/04/06 00:00:18;;;;;;;9.07;6.43;;;;;;;;;;5049064;28;20477;-70
2023/04/06 00:02:46;;;;;;;13.97;6.97;;;;;;;;;;5047537;28;20863;-69
2023/04/06 00:05:19;;;;;;;8.20;6.90;;;;;;;;;;5048984;28;20777;-70
2023/04/06 00:07:47;;;;;;;8.77;5.13;;;;;;;;;;5050238;28;20659;-70
2023/04/06 00:10:22;;;;;;;6.23;4.23;;;;;;;;;;5046337;28;20551;-70
2023/04/06 00:12:51;;;;;;;7.47;4.50;;;;;;;;;;5052088;28;21013;-69
2023/04/06 00:15:19;;;;;;;6.27;4.40;;;;;;;;;;5047625;28;20741;-69
2023/04/06 00:17:48;;;;;;;5.00;4.43;;;;;;;;;;5048967;28;20572;-70
2023/04/06 00:20:22;;;;;;;12.43;5.33;;;;;;;;;;5051987;28;20589;-70
2023/04/06 00:22:50;;;;;;;7.37;4.70;;;;;;;;;;5050244;28;20859;-70
2023/04/06 00:25:21;;;;;;;11.40;5.37;;;;;;;;;;5044709;28;20474;-71
2023/04/06 00:27:50;;;;;;;7.27;4.80;;;;;;;;;;5035619;28;20459;-71
2023/04/06 00:30:18;;;;;;;7.10;4.60;;;;;;;;;;5036495;28;20549;-70
2023/04/06 00:32:45;;;;;;;5.73;4.30;;;;;;;;;;5036398;28;20601;-70
2023/04/06 00:35:13;;;;;;;6.93;4.13;;;;;;;;;;5036504;28;20794;-71
2023/04/06 00:37:44;;;;;;;9.47;6.70;;;;;;;;;;5036340;28;20458;-70
2023/04/06 00:40:17;;;;;;;9.63;5.00;;;;;;;;;;5045344;28;20492;-70
2023/04/06 00:42:53;;;;;;;10.60;4.90;;;;;;;;;;5047217;28;20525;-71
2023/04/06 00:45:24;;;;;;;7.10;4.43;;;;;;;;;;5045417;28;20516;-71
2023/04/06 00:47:55;;;;;;;8.37;5.30;;;;;;;;;;5050532;28;20470;-70
2023/04/06 00:50:23;;;;;;;6.80;4.70;;;;;;;;;;5049506;28;20446;-69
2023/04/06 00:52:58;;;;;;;6.60;4.43;;;;;;;;;;5044698;28;20443;-70
2023/04/06 00:55:31;;;;;;;5.73;3.80;;;;;;;;;;5049665;28;20513;-69
2023/04/06 00:58:00;;;;;;;11.00;4.93;;;;;;;;;;5043988;28;20477;-69
2023/04/06 01:00:30;;;;;;;7.37;4.67;;;;;;;;;;5045746;28;20486;-69
2023/04/06 01:02:58;;;;;;;6.00;4.00;;;;;;;;;;5046529;28;20776;-70
2023/04/06 01:05:26;;;;;;;7.00;4.10;;;;;;;;;;5045189;28;20457;-70
2023/04/06 01:07:53;;;;;;;6.23;3.93;;;;;;;;;;5049173;28;20517;-71
2023/04/06 01:10:31;;;;;;;5.37;3.90;;;;;;;;;;5045252;28;20745;-70
2023/04/06 01:13:01;;;;;;;7.23;4.13;;;;;;;;;;5039628;28;20777;-69
2023/04/06 01:15:33;;;;;;;7.17;3.80;;;;;;;;;;5037311;28;20463;-70
2023/04/06 01:18:02;;;;;;;4.67;3.37;;;;;;;;;;5043353;28;20497;-70
2023/04/06 01:20:30;;;;;;;6.67;4.00;;;;;;;;;;5056283;28;20550;-68
2023/04/06 01:23:01;;;;;;;6.10;3.80;;;;;;;;;;5056354;28;20466;-69
2023/04/06 01:25:28;;;;;;;7.10;3.53;;;;;;;;;;5056157;28;20461;-70
2023/04/06 01:27:56;;;;;;;8.33;3.80;;;;;;;;;;5041852;28;20470;-69
2023/04/06 01:30:23;;;;;;;5.60;3.93;;;;;;;;;;5036951;28;20459;-69
2023/04/06 01:32:51;;;;;;;4.87;3.60;;;;;;;;;;5035734;28;20474;-70
2023/04/06 01:35:28;;;;;;;7.40;4.50;;;;;;;;;;5036387;28;20509;-70
2023/04/06 01:37:55;;;;;;;5.50;3.20;;;;;;;;;;5037106;28;20545;-69
2023/04/06 01:40:24;;;;;;;5.10;3.50;;;;;;;;;;5036102;28;20487;-70
2023/04/06 01:42:52;;;;;;;4.83;3.37;;;;;;;;;;5054363;28;20461;-69
2023/04/06 01:45:19;;;;;;;5.53;3.57;;;;;;;;;;5056536;28;20561;-71
2023/04/06 01:47:47;;;;;;;9.50;3.40;;;;;;;;;;5059760;28;20512;-70
2023/04/06 01:50:17;;;;;;;3.90;2.97;;;;;;;;;;5060546;28;20470;-70
2023/04/06 01:52:45;;;;;;;5.60;3.57;;;;;;;;;;5060390;28;20478;-70
2023/04/06 01:55:12;;;;;;;5.17;3.13;;;;;;;;;;5061117;28;20468;-70
2023/04/06 01:57:41;;;;;;;7.37;3.80;;;;;;;;;;5060057;28;20458;-70
2023/04/06 02:00:18;;;;;;;8.23;4.23;;;;;;;;;;5058408;28;20496;-70
2023/04/06 02:02:45;;;;;;;4.60;3.40;;;;;;;;;;5059819;28;20469;-70
2023/04/06 02:05:13;;;;;;;5.40;3.47;;;;;;;;;;5060613;28;20548;-70
2023/04/06 02:07:40;;;;;;;5.77;3.77;;;;;;;;;;5060772;28;20492;-70
2023/04/06 02:10:14;;;;;;;6.07;3.50;;;;;;;;;;5058829;28;20466;-70
2023/04/06 02:12:43;;;;;;;8.83;3.67;;;;;;;;;;5057820;28;20461;-70
2023/04/06 02:15:13;;;;;;;5.87;3.50;;;;;;;;;;5057806;28;20486;-70
2023/04/06 02:17:42;;;;;;;4.40;3.43;;;;;;;;;;5058052;28;20449;-69
2023/04/06 02:20:14;;;;;;;7.07;4.10;;;;;;;;;;5059242;28;20486;-70
2023/04/06 02:22:42;;;;;;;4.63;2.90;;;;;;;;;;5057969;28;20781;-69
2023/04/06 02:25:09;;;;;;;4.87;3.30;;;;;;;;;;5059087;28;20454;-68
2023/04/06 02:27:39;;;;;;;6.50;4.13;;;;;;;;;;5058492;28;20468;-71
2023/04/06 02:30:17;;;;;;;5.40;3.50;;;;;;;;;;5059749;28;20553;-69
2023/04/06 02:32:45;;;;;;;5.73;3.37;;;;;;;;;;5060445;28;20481;-71
2023/04/06 02:35:12;;;;;;;4.43;3.70;;;;;;;;;;5059015;28;20473;-70
2023/04/06 02:37:40;;;;;;;9.97;4.83;;;;;;;;;;5059987;28;20458;-70
2023/04/06 02:40:15;;;;;;;5.33;3.23;;;;;;;;;;5058831;28;20507;-70
2023/04/06 02:42:46;;;;;;;5.67;4.07;;;;;;;;;;5041649;28;20454;-70
2023/04/06 02:45:16;;;;;;;5.07;3.90;;;;;;;;;;5037605;28;20465;-69
2023/04/06 02:47:43;;;;;;;8.13;4.07;;;;;;;;;;5038350;28;20462;-70
2023/04/06 02:50:15;;;;;;;5.73;3.73;;;;;;;;;;5038324;28;20493;-69
2023/04/06 02:52:43;;;;;;;7.83;4.30;;;;;;;;;;5036665;28;20467;-70
2023/04/06 02:55:11;;;;;;;8.50;4.83;;;;;;;;;;5037144;28;20489;-70
2023/04/06 02:57:38;;;;;;;6.87;4.10;;;;;;;;;;5037781;28;20475;-70
2023/04/06 03:00:07;;;;;;;5.10;3.57;;;;;;;;;;5037513;28;20997;-70
2023/04/06 03:02:36;;;;;;;8.73;4.57;;;;;;;;;;5037860;28;20581;-70
2023/04/06 03:05:03;;;;;;;7.10;3.27;;;;;;;;;;5037225;28;20458;-70
2023/04/06 03:07:30;;;;;;;6.10;4.40;;;;;;;;;;5038470;28;20554;-70
2023/04/06 03:09:58;;;;;;;5.70;4.40;;;;;;;;;;5039284;28;20718;-70
2023/04/06 03:12:25;;;;;;;7.97;4.13;;;;;;;;;;5039858;28;20478;-70
2023/04/06 03:14:53;;;;;;;6.57;3.70;;;;;;;;;;5039003;28;20641;-70
2023/04/06 03:17:21;;;;;;;5.00;3.83;;;;;;;;;;5036822;28;20458;-70
2023/04/06 03:19:49;;;;;;;6.33;3.53;;;;;;;;;;5036960;28;20537;-70
2023/04/06 03:22:17;;;;;;;4.43;3.90;;;;;;;;;;5037842;28;20535;-69
2023/04/06 03:24:45;;;;;;;7.50;3.70;;;;;;;;;;5036783;28;20455;-69
2023/04/06 03:27:12;;;;;;;5.63;4.10;;;;;;;;;;5036716;28;20879;-70
2023/04/06 03:29:40;;;;;;;12.00;4.10;;;;;;;;;;5036221;28;20459;-69
2023/04/06 03:32:09;;;;;;;7.23;4.23;;;;;;;;;;5038837;28;20486;-70
2023/04/06 03:34:37;;;;;;;8.23;4.53;;;;;;;;;;5037342;28;20876;-70
2023/04/06 03:37:06;;;;;;;5.63;4.00;;;;;;;;;;5038369;28;20455;-70
2023/04/06 03:39:36;;;;;;;7.87;4.63;;;;;;;;;;5037398;28;20890;-70
2023/04/06 03:42:06;;;;;;;7.30;4.37;;;;;;;;;;5038377;28;20921;-70
2023/04/06 03:44:34;;;;;;;6.90;4.60;;;;;;;;;;5036889;28;20533;-70
2023/04/06 03:47:02;;;;;;;8.07;4.30;;;;;;;;;;5037190;28;20478;-70
2023/04/06 03:49:29;;;;;;;6.33;4.80;;;;;;;;;;5036855;28;20802;-70
2023/04/06 03:51:57;;;;;;;7.20;4.93;;;;;;;;;;5037955;28;20480;-71
2023/04/06 03:54:26;;;;;;;8.60;4.77;;;;;;;;;;5035475;28;20442;-71
2023/04/06 03:56:54;;;;;;;5.80;3.57;;;;;;;;;;5036463;28;20517;-70
2023/04/06 03:59:22;;;;;;;8.13;4.47;;;;;;;;;;5036954;28;20459;-70
2023/04/06 04:01:50;;;;;;;10.70;4.43;;;;;;;;;;5037066;28;20491;-70
2023/04/06 04:04:18;;;;;;;5.37;4.20;;;;;;;;;;5036876;28;20474;-69
2023/04/06 04:06:45;;;;;;;7.80;4.90;;;;;;;;;;5036195;28;20462;-70
2023/04/06 04:09:14;;;;;;;8.77;4.77;;;;;;;;;;5040289;28;20454;-70
2023/04/06 04:11:50;;;;;;;6.07;4.00;;;;;;;;;;5054653;28;20737;-70
2023/04/06 04:14:17;;;;;;;8.80;4.60;;;;;;;;;;5035985;28;20467;-70
2023/04/06 04:16:44;;;;;;;6.10;4.40;;;;;;;;;;5036673;28;20492;-69
2023/04/06 04:19:12;;;;;;;8.13;5.00;;;;;;;;;;5036300;28;20538;-69
2023/04/06 04:21:45;;;;;;;5.10;4.37;;;;;;;;;;5036162;28;20518;-71
2023/04/06 04:24:12;;;;;;;5.30;4.17;;;;;;;;;;5050373;28;20465;-70
2023/04/06 04:27:04;;;;;;;6.23;3.80;;;;;;;;;;5056430;28;20873;-70
2023/04/06 04:29:36;;;;;;;5.97;3.93;;;;;;;;;;5054606;28;20438;-69
2023/04/06 04:32:04;;;;;;;7.40;3.90;;;;;;;;;;5045208;28;20466;-70
2023/04/06 04:34:32;;;;;;;5.43;4.40;;;;;;;;;;5035426;28;20494;-69
2023/04/06 04:37:00;;;;;;;7.97;5.50;;;;;;;;;;5049386;28;20454;-70
2023/04/06 04:39:27;;;;;;;6.43;4.37;;;;;;;;;;5056122;28;20445;-70
2023/04/06 04:41:55;;;;;;;10.27;5.03;;;;;;;;;;5054830;28;20486;-70
2023/04/06 04:44:23;;;;;;;12.00;5.10;;;;;;;;;;5055247;28;20461;-70
2023/04/06 04:46:52;;;;;;;6.63;5.07;;;;;;;;;;5053914;28;20454;-70
2023/04/06 04:49:19;;;;;;;6.43;4.73;;;;;;;;;;5054293;28;20468;-69
2023/04/06 04:51:47;;;;;;;7.33;4.93;;;;;;;;;;5055124;28;20452;-70
2023/04/06 04:54:14;;;;;;;7.87;5.60;;;;;;;;;;5054686;28;20488;-70
2023/04/06 04:56:42;;;;;;;5.60;4.70;;;;;;;;;;5056008;28;20469;-70
2023/04/06 04:59:11;;;;;;;7.70;5.43;;;;;;;;;;5056031;28;20449;-70
2023/04/06 05:01:42;;;;;;;7.43;5.07;;;;;;;;;;5056409;28;20485;-71
2023/04/06 05:04:12;;;;;;;6.37;4.90;;;;;;;;;;5041104;28;20538;-70
2023/04/06 05:06:39;;;;;;;9.07;5.70;;;;;;;;;;5037149;28;20811;-70
2023/04/06 05:09:07;;;;;;;8.20;5.40;;;;;;;;;;5042586;28;20512;-71
2023/04/06 05:11:35;;;;;;;11.23;6.43;;;;;;;;;;5045311;28;20447;-70
2023/04/06 05:14:02;;;;;;;9.83;6.40;;;;;;;;;;5042292;28;20454;-71
2023/04/06 05:16:29;;;;;;;8.60;6.30;;;;;;;;;;5052630;28;20453;-70
2023/04/06 05:18:58;;;;;;;9.47;6.10;;;;;;;;;;5051438;28;20914;-70
2023/04/06 05:21:28;;;;;;;9.67;6.03;;;;;;;;;;5048008;28;20602;-70
2023/04/06 05:23:58;;;;;;;7.10;6.00;;;;;;;;;;5049807;28;20458;-69
2023/04/06 05:26:26;;;;;;;7.50;5.50;;;;;;;;;;5050665;28;20454;-70
2023/04/06 05:28:54;;;;;;;12.60;6.50;;;;;;;;;;5051194;28;21065;-69
2023/04/06 05:31:22;;;;;;;8.00;5.20;;;;;;;;;;5052418;28;20441;-70
2023/04/06 05:33:50;;;;;;;9.07;5.63;;;;;;;;;;5052726;28;21105;-70
2023/04/06 05:36:17;;;;;;;13.50;6.20;;;;;;;;;;5037979;28;20483;-70
2023/04/06 05:38:46;;;;;;;12.33;5.77;;;;;;;;;;5031746;28;21023;-70
2023/04/06 05:41:15;;;;;;;10.70;5.60;;;;;;;;;;5033275;28;20526;-70
2023/04/06 05:43:42;;;;;;;7.93;6.03;;;;;;;;;;5032960;28;20493;-71
2023/04/06 05:46:10;;;;;;;8.80;5.80;;;;;;;;;;5033263;28;20459;-71
2023/04/06 05:48:38;;;;;;;7.60;5.40;;;;;;;;;;5033873;28;20478;-69
2023/04/06 05:51:06;;;;;;;7.07;4.80;;;;;;;;;;5032449;28;20698;-69
2023/04/06 05:53:34;;;;;;;8.73;5.23;;;;;;;;;;5032135;28;20546;-69
2023/04/06 05:56:07;;;;;;;8.40;5.70;;;;;;;;;;5031371;28;20538;-69
2023/04/06 05:58:38;;;;;;;6.57;5.40;;;;;;;;;;5031278;28;20450;-70
2023/04/06 06:01:06;;;;;;;7.77;6.10;;;;;;;;;;5031661;28;20589;-71
2023/04/06 06:03:34;;;;;;;10.40;5.70;;;;;;;;;;5036596;28;21226;-70
2023/04/06 06:06:02;;;;;;;8.27;6.10;;;;;;;;;;5039590;28;20943;-71
2023/04/06 06:08:29;;;;;;;7.57;5.90;;;;;;;;;;5032493;28;20467;-70
2023/04/06 06:10:57;;;;;;;7.43;6.13;;;;;;;;;;5049971;28;20450;-70
2023/04/06 06:13:26;;;;;;;10.80;5.83;;;;;;;;;;5051026;28;20485;-71
2023/04/06 06:15:53;;;;;;;7.40;4.93;;;;;;;;;;5049175;28;20458;-71
2023/04/06 06:18:21;;;;;;;7.07;5.20;;;;;;;;;;5049537;28;20552;-69
2023/04/06 06:20:49;;;;;;;7.37;5.43;;;;;;;;;;5048786;28;20489;-70
2023/04/06 06:23:18;;;;;;;7.80;4.63;;;;;;;;;;5033071;28;20474;-70
2023/04/06 06:25:45;;;;;;;7.17;5.07;;;;;;;;;;5027366;28;20474;-70
2023/04/06 06:28:13;;;;;;;7.10;5.73;;;;;;;;;;5029031;28;21027;-70
2023/04/06 06:30:45;;;;;;;6.57;4.97;;;;;;;;;;5028425;28;20503;-70
2023/04/06 06:33:12;;;;;;;8.50;4.50;;;;;;;;;;5030799;28;20493;-70
2023/04/06 06:35:40;;;;;;;9.33;4.23;;;;;;;;;;5033353;28;20754;-71
2023/04/06 06:38:12;;;;;;;6.10;4.57;;;;;;;;;;5032400;28;20451;-71
2023/04/06 06:40:43;;;;;;;5.90;4.23;;;;;;;;;;5031278;28;20628;-70
2023/04/06 06:43:10;;;;;;;6.80;4.70;;;;;;;;;;5031660;28;20451;-70
2023/04/06 06:45:39;;;;;;;7.43;4.90;;;;;;;;;;5031854;28;20454;-71
2023/04/06 06:48:11;;;;;;;16.00;5.97;;;;;;;;;;5031917;28;20855;-68
2023/04/06 06:50:39;;;;;;;4.80;3.70;;;;;;;;;;5033421;28;20457;-70
2023/04/06 06:53:07;;;;;;;7.30;3.97;;;;;;;;;;5033258;28;20553;-70
2023/04/06 06:55:37;;;;;;;9.20;4.70;;;;;;;;;;5034324;28;20772;-70
2023/04/06 06:58:06;;;;;;;8.40;4.10;;;;;;;;;;5040966;28;20956;-69
2023/04/06 07:00:37;;;;;;;17.90;5.43;;;;;;;;;;5033596;28;20458;-70
2023/04/06 07:03:05;;;;;;;6.37;4.13;;;;;;;;;;5039225;28;20470;-70
2023/04/06 07:05:34;;;;;;;6.90;4.27;;;;;;;;;;5053471;28;20466;-71
2023/04/06 07:08:02;;;;;;;7.73;3.63;;;;;;;;;;5050844;28;20469;-71
2023/04/06 07:10:29;;;;;;;7.40;4.23;;;;;;;;;;5050835;28;20464;-69
2023/04/06 07:13:01;;;;;;;6.17;3.57;;;;;;;;;;5050672;28;20539;-69
2023/04/06 07:15:34;;;;;;;7.37;3.80;;;;;;;;;;5052484;28;20469;-69
2023/04/06 07:18:01;;;;;;;6.90;4.43;;;;;;;;;;5047877;28;20511;-69
2023/04/06 07:20:31;;;;;;;6.77;4.07;;;;;;;;;;5052119;28;20515;-69
2023/04/06 07:23:02;;;;;;;6.80;3.73;;;;;;;;;;5052416;28;20489;-71
2023/04/06 07:25:31;;;;;;;7.50;4.27;;;;;;;;;;5050404;28;20520;-70
2023/04/06 07:27:58;;;;;;;7.13;3.90;;;;;;;;;;5051865;28;20564;-69
2023/04/06 07:30:28;;;;;;;6.40;3.60;;;;;;;;;;5050908;28;20454;-74
2023/04/06 07:32:56;;;;;;;12.33;5.40;;;;;;;;;;5051403;28;20567;-70
2023/04/06 07:35:24;;;;;;;8.40;4.87;;;;;;;;;;5051154;28;20515;-70
2023/04/06 07:37:56;;;;;;;6.77;4.17;;;;;;;;;;5052057;28;20449;-70
2023/04/06 07:40:26;;;;;;;6.40;4.27;;;;;;;;;;5049529;28;20469;-70
2023/04/06 07:42:55;;;;;;;13.70;4.70;;;;;;;;;;5036058;28;20594;-73
2023/04/06 07:45:25;;;;;;;8.83;3.33;;;;;;;;;;5049332;28;21055;-70
2023/04/06 07:47:56;;;;;;;7.20;3.77;;;;;;;;;;5047849;28;20528;-70
2023/04/06 07:50:24;;;;;;;9.97;4.33;;;;;;;;;;5049105;28;20438;-70
2023/04/06 07:52:52;;;;;;;6.00;3.57;;;;;;;;;;5047851;28;20990;-72
2023/04/06 07:55:20;;;;;;;6.43;3.90;;;;;;;;;;5050647;28;20453;-71
2023/04/06 07:57:52;;;;;;;5.57;2.97;;;;;;;;;;5051447;28;20465;-70
2023/04/06 08:00:26;;;;;;;11.83;4.93;;;;;;;;;;5052369;28;20462;-70
2023/04/06 08:02:55;;;;;;;5.13;3.53;;;;;;;;;;5047299;28;20485;-71
2023/04/06 08:05:23;;;;;;;6.87;3.83;;;;;;;;;;5051053;28;20458;-70
2023/04/06 08:07:51;;;;;;;5.63;3.10;;;;;;;;;;5037592;28;20454;-72
2023/04/06 08:10:18;;;;;;;8.40;3.10;;;;;;;;;;5029929;28;20988;-70
2023/04/06 08:12:46;;;;;;;9.00;3.70;;;;;;;;;;5042268;28;20564;-71
2023/04/06 08:15:21;;;;;;;7.77;2.90;;;;;;;;;;5033830;28;20502;-71
2023/04/06 08:17:49;;;;;;;6.40;3.17;;;;;;;;;;5046417;28;20462;-70
2023/04/06 08:20:17;;;;;;;8.73;3.47;;;;;;;;;;5050862;28;20562;-70
2023/04/06 08:22:47;;;;;;;5.57;3.43;;;;;;;;;;5056989;28;20837;-70
2023/04/06 08:25:20;;;;;;;5.60;2.90;;;;;;;;;;5066497;28;21898;-70
2023/04/06 08:27:51;;;;;;;8.20;3.50;;;;;;;;;;5031130;28;20500;-70
2023/04/06 08:30:21;;;;;;;9.57;3.63;;;;;;;;;;5044892;28;20568;-71
2023/04/06 08:32:49;;;;;;;6.17;4.00;;;;;;;;;;5049205;28;20477;-71
2023/04/06 08:35:17;;;;;;;6.17;3.40;;;;;;;;;;5047743;28;20768;-71
2023/04/06 08:37:47;;;;;;;5.37;2.60;;;;;;;;;;5051477;28;20453;-71
2023/04/06 08:40:18;;;;;;;8.80;3.60;;;;;;;;;;5049725;28;20560;-70
2023/04/06 08:42:51;;;;;;;8.20;5.27;;;;;;;;;;5049678;28;20562;-71
2023/04/06 08:45:21;;;;;;;5.90;3.10;;;;;;;;;;5048465;28;20564;-71
2023/04/06 08:47:52;;;;;;;6.20;3.10;;;;;;;;;;5045991;28;20472;-71
2023/04/06 08:50:21;;;;;;;5.57;3.20;;;;;;;;;;5044744;28;20481;-71
2023/04/06 08:52:49;;;;;;;4.87;2.90;;;;;;;;;;5043195;28;20481;-70
2023/04/06 08:55:17;;;;;;;9.70;4.83;;;;;;;;;;5041058;28;20527;-71
2023/04/06 08:57:45;;;;;;;13.50;7.33;;;;;;;;;;5045216;28;20619;-70
2023/04/06 09:00:50;;;;;;;7.80;3.23;;;;;;;;;;5045638;28;20533;-70
2023/04/06 09:03:33;;;;;;;6.17;3.20;;;;;;;;;;5035776;28;20572;-71
2023/04/06 09:06:05;;;;;;;12.43;4.37;;;;;;;;;;5038841;28;20558;-72
2023/04/06 09:08:40;;;;;;;7.53;4.10;;;;;;;;;;5038090;28;20458;-71
2023/04/06 09:11:08;;;;;;;6.93;6.13;;;;;;;;;;5047702;28;20861;-70
2023/04/06 09:13:52;;;;;;;6.53;3.70;;;;;;;;;;5044972;28;21164;-71
2023/04/06 09:16:20;;;;;;;9.07;3.30;;;;;;;;;;5026393;28;20802;-70
2023/04/06 09:18:49;;;;;;;6.07;3.60;;;;;;;;;;5027999;28;20868;-70
2023/04/06 09:21:22;;;;;;;5.83;2.87;;;;;;;;;;5026058;28;20451;-71
2023/04/06 09:23:59;;;;;;;12.53;4.10;;;;;;;;;;5024091;28;20447;-70
2023/04/06 09:26:27;;;;;;;6.43;3.53;;;;;;;;;;5027234;28;20465;-69
2023/04/06 09:29:07;;;;;;;6.30;2.93;;;;;;;;;;5044905;28;20489;-70
2023/04/06 09:31:41;;;;;;;8.40;4.13;;;;;;;;;;5034389;28;20463;-71
2023/04/06 09:34:24;;;;;;;8.13;3.80;;;;;;;;;;5023260;28;20723;-71
2023/04/06 09:36:55;;;;;;;5.83;4.00;;;;;;;;;;5030753;28;20820;-71
2023/04/06 09:39:27;;;;;;;6.00;3.93;;;;;;;;;;5048428;28;20541;-72
2023/04/06 09:41:56;;;;;;;6.90;4.67;;;;;;;;;;5050680;28;20584;-71
2023/04/06 09:44:25;;;;;;;7.70;4.53;;;;;;;;;;5049616;28;20478;-71
2023/04/06 09:46:58;;;;;;;6.63;4.50;;;;;;;;;;5048329;28;20457;-71
2023/04/06 09:49:29;;;;;;;7.47;3.90;;;;;;;;;;5034244;28;20993;-71
2023/04/06 09:51:58;;;;;;;7.90;4.50;;;;;;;;;;5035412;28;20471;-74
2023/04/06 09:54:27;;;;;;;7.83;4.43;;;;;;;;;;5036640;28;20962;-69
2023/04/06 09:56:58;;;;;;;6.97;4.50;;;;;;;;;;5041275;28;20525;-70
2023/04/06 09:59:30;;;;;;;11.00;4.83;;;;;;;;;;5029047;28;20522;-70
2023/04/06 10:02:00;;;;;;;8.37;4.20;;;;;;;;;;5038368;28;20589;-71
2023/04/06 10:04:35;;;;;;;10.20;4.60;;;;;;;;;;5040863;28;20742;-70
2023/04/06 10:07:04;;;;;;;8.27;4.90;;;;;;;;;;5043858;28;21117;-69
2023/04/06 10:09:35;;;;;;;7.43;4.73;;;;;;;;;;5039662;28;20554;-71
2023/04/06 10:12:04;;;;;;;10.70;5.00;;;;;;;;;;5052992;28;20446;-71
2023/04/06 10:14:36;;;;;;;7.60;4.33;;;;;;;;;;5051961;28;20464;-71
2023/04/06 10:17:06;;;;;;;8.13;4.73;;;;;;;;;;5052430;28;20531;-72
2023/04/06 10:19:41;;;;;;;11.77;5.50;;;;;;;;;;5053924;28;20568;-71
2023/04/06 10:22:12;;;;;;;8.50;5.37;;;;;;;;;;5053031;28;20498;-70
2023/04/06 10:24:41;;;;;;;8.40;5.17;;;;;;;;;;5050550;28;20524;-72
2023/04/06 10:27:10;;;;;;;9.30;5.37;;;;;;;;;;5051333;28;20450;-69
2023/04/06 10:29:45;;;;;;;10.00;6.40;;;;;;;;;;5052577;28;20523;-71
2023/04/06 10:32:14;;;;;;;9.83;5.53;;;;;;;;;;5050533;28;20457;-71
2023/04/06 10:34:43;;;;;;;7.47;4.97;;;;;;;;;;5045457;28;20536;-70
2023/04/06 10:37:21;;;;;;;9.10;5.37;;;;;;;;;;5048870;28;20876;-70
2023/04/06 10:39:58;;;;;;;6.60;4.57;;;;;;;;;;5047703;28;20515;-71
2023/04/06 10:42:38;;;;;;;6.60;4.43;;;;;;;;;;5048614;28;20477;-69
2023/04/06 10:48:16;;;;;;;6.77;4.53;;;;;;;;;;5044927;28;20454;-71
2023/04/06 10:50:49;;;;;;;11.37;5.47;;;;;;;;;;5051130;28;20773;-71
2023/04/06 10:53:24;;;;;;;11.23;6.47;;;;;;;;;;5051978;28;20539;-73
2023/04/06 10:55:54;;;;;;;9.53;6.10;;;;;;;;;;5049853;28;20441;-71
2023/04/06 10:58:41;;;;;;;10.40;6.97;;;;;;;;;;5045257;28;20438;-72
2023/04/06 11:01:08;;;;;;;9.83;5.60;;;;;;;;;;5031754;28;20450;-72
2023/04/06 11:03:45;;;;;;;12.67;5.80;;;;;;;;;;5026672;28;21090;-70
2023/04/06 11:06:19;;;;;;;8.00;5.30;;;;;;;;;;4986529;28;20544;-71
2023/04/06 11:08:48;;;;;;;10.87;7.27;;;;;;;;;;4996025;28;20463;-71
2023/04/06 11:11:32;;;;;;;10.77;5.90;;;;;;;;;;5011099;28;20554;-71
2023/04/06 11:14:13;;;;;;;8.30;5.47;;;;;;;;;;5002041;28;20539;-72
2023/04/06 11:16:44;;;;;;;9.53;6.60;;;;;;;;;;5010201;28;20840;-71
2023/04/06 11:19:18;;;;;;;8.10;5.93;;;;;;;;;;4991690;28;20468;-71
2023/04/06 11:21:48;;;;;;;9.77;5.40;;;;;;;;;;4987212;28;20453;-70
2023/04/06 11:24:21;;;;;;;12.53;6.37;;;;;;;;;;4993483;28;20490;-72
2023/04/06 11:26:56;;;;;;;9.23;5.83;;;;;;;;;;5007031;28;20463;-71
2023/04/06 11:29:25;;;;;;;9.70;5.13;;;;;;;;;;5028263;28;20505;-71
2023/04/06 11:31:56;;;;;;;10.60;5.50;;;;;;;;;;5048296;28;20458;-71
2023/04/06 11:34:25;;;;;;;9.10;5.80;;;;;;;;;;5048596;28;20486;-70
2023/04/06 11:36:58;;;;;;;11.97;5.67;;;;;;;;;;5047440;28;20973;-70
2023/04/06 11:39:32;;;;;;;8.47;5.77;;;;;;;;;;5043462;28;20520;-71
2023/04/06 11:42:01;;;;;;;8.97;6.07;;;;;;;;;;5045765;28;20514;-70
2023/04/06 11:44:34;;;;;;;13.37;5.77;;;;;;;;;;5044425;28;20459;-70
2023/04/06 11:47:02;;;;;;;8.80;6.00;;;;;;;;;;5050173;28;20549;-70
2023/04/06 11:49:34;;;;;;;12.27;6.10;;;;;;;;;;5044189;28;20462;-71
2023/04/06 11:52:03;;;;;;;8.87;6.67;;;;;;;;;;5035475;28;20848;-71
2023/04/06 11:54:41;;;;;;;9.00;6.27;;;;;;;;;;5049826;28;20476;-71
2023/04/06 11:57:16;;;;;;;12.40;7.40;;;;;;;;;;5044555;28;20588;-71
2023/04/06 12:00:02;;;;;;;9.90;6.03;;;;;;;;;;5048691;28;20496;-71
2023/04/06 12:02:49;;;;;;;8.67;6.27;;;;;;;;;;5045110;28;20802;-72
2023/04/06 12:05:20;;;;;;;11.13;7.13;;;;;;;;;;5034950;28;20552;-73
2023/04/06 12:07:54;;;;;;;11.13;6.77;;;;;;;;;;5042938;28;20587;-71
2023/04/06 12:10:27;;;;;;;10.57;6.80;;;;;;;;;;5023010;28;20474;-71
2023/04/06 12:12:57;;;;;;;9.37;6.20;;;;;;;;;;5029042;28;20544;-70
2023/04/06 12:15:36;;;;;;;14.73;6.70;;;;;;;;;;5044146;28;21053;-72
2023/04/06 12:18:15;;;;;;;11.73;7.00;;;;;;;;;;5021500;28;20532;-71
2023/04/06 12:20:52;;;;;;;10.47;6.17;;;;;;;;;;5047955;28;20549;-71
2023/04/06 12:23:31;;;;;;;13.20;7.83;;;;;;;;;;5047674;28;20542;-71
2023/04/06 12:26:08;;;;;;;12.83;6.77;;;;;;;;;;5047826;28;20469;-70
2023/04/06 12:28:36;;;;;;;10.60;6.10;;;;;;;;;;5046362;28;20533;-71
2023/04/06 12:31:04;;;;;;;8.93;6.27;;;;;;;;;;5040192;28;20506;-71
2023/04/06 12:33:34;;;;;;;11.80;7.67;;;;;;;;;;5031635;28;20465;-71
2023/04/06 12:36:02;;;;;;;11.90;7.50;;;;;;;;;;5028352;28;20517;-70
2023/04/06 12:38:41;;;;;;;11.33;8.10;;;;;;;;;;5026211;28;20838;-72
2023/04/06 12:41:09;;;;;;;10.17;6.87;;;;;;;;;;5030765;28;20497;-71
2023/04/06 12:43:40;;;;;;;10.97;7.20;;;;;;;;;;5045094;28;20513;-71
2023/04/06 12:46:08;;;;;;;10.53;6.70;;;;;;;;;;5043336;28;20442;-71
2023/04/06 12:48:39;;;;;;;17.60;6.67;;;;;;;;;;5046323;28;20944;-71
2023/04/06 12:51:15;;;;;;;13.07;6.90;;;;;;;;;;5044403;28;20523;-71
2023/04/06 12:53:55;;;;;;;10.10;6.40;;;;;;;;;;5037305;28;20454;-71
2023/04/06 12:56:30;;;;;;;8.60;6.97;;;;;;;;;;5047554;28;20469;-72
2023/04/06 12:59:00;;;;;;;8.90;6.47;;;;;;;;;;5049117;28;20492;-72
2023/04/06 13:01:30;;;;;;;10.90;7.00;;;;;;;;;;5047426;28;20454;-72
2023/04/06 13:03:58;;;;;;;11.93;6.97;;;;;;;;;;5044112;28;20482;-72
2023/04/06 13:06:27;;;;;;;9.87;5.50;;;;;;;;;;5044707;28;21029;-71
2023/04/06 13:08:59;;;;;;;13.10;9.97;;;;;;;;;;5034979;28;20470;-71
2023/04/06 13:11:29;;;;;;;9.57;6.87;;;;;;;;;;5047431;28;20888;-70
2023/04/06 13:13:59;;;;;;;10.43;7.00;;;;;;;;;;5049386;28;20787;-73
2023/04/06 13:16:29;;;;;;;13.90;7.97;;;;;;;;;;5047910;28;20758;-71
2023/04/06 13:18:58;;;;;;;8.97;6.70;;;;;;;;;;5046295;28;20458;-71
2023/04/06 13:21:25;;;;;;;9.70;6.70;;;;;;;;;;5045851;28;20456;-71
2023/04/06 13:23:53;;;;;;;11.50;7.30;;;;;;;;;;5044185;28;20489;-71
2023/04/06 13:26:28;;;;;;;9.97;7.47;;;;;;;;;;5045604;28;20666;-71
2023/04/06 13:28:56;;;;;;;8.83;5.80;;;;;;;;;;5048206;28;20480;-72
2023/04/06 13:31:27;;;;;;;9.07;6.80;;;;;;;;;;5048120;28;20529;-71
2023/04/06 13:33:57;;;;;;;11.37;7.00;;;;;;;;;;5038914;28;20451;-71
2023/04/06 13:36:26;;;;;;;10.57;6.53;;;;;;;;;;5027147;28;20447;-70
2023/04/06 13:38:59;;;;;;;10.70;6.93;;;;;;;;;;5039752;28;20716;-71
2023/04/06 13:41:30;;;;;;;11.80;6.67;;;;;;;;;;5043685;28;20458;-70
2023/04/06 13:44:00;;;;;;;11.10;7.27;;;;;;;;;;5048693;28;21166;-70
2023/04/06 13:46:34;;;;;;;8.37;5.53;;;;;;;;;;5049030;28;20495;-70
2023/04/06 13:49:05;;;;;;;8.83;5.97;;;;;;;;;;5048951;28;20445;-69
2023/04/06 13:51:37;;;;;;;9.43;6.90;;;;;;;;;;5052409;28;21034;-70
2023/04/06 13:54:07;;;;;;;10.10;6.60;;;;;;;;;;5046462;28;20465;-70
2023/04/06 13:56:37;;;;;;;10.03;6.63;;;;;;;;;;5036876;28;20579;-70
2023/04/06 13:59:05;;;;;;;11.63;7.07;;;;;;;;;;5033066;28;20454;-71
2023/04/06 14:01:33;;;;;;;10.93;6.30;;;;;;;;;;5036262;28;20489;-70
2023/04/06 14:04:01;;;;;;;8.70;6.77;;;;;;;;;;5048397;28;20528;-71
2023/04/06 14:06:39;;;;;;;14.77;6.73;;;;;;;;;;5034662;28;20455;-70
2023/04/06 14:09:07;;;;;;;9.73;6.60;;;;;;;;;;5048059;28;20466;-71
2023/04/06 14:11:40;;;;;;;9.33;6.57;;;;;;;;;;5050153;28;20473;-70
2023/04/06 14:14:10;;;;;;;11.37;7.50;;;;;;;;;;5049007;28;20443;-70
2023/04/06 14:16:51;;;;;;;9.17;6.20;;;;;;;;;;5049176;28;20535;-70
2023/04/06 14:19:33;;;;;;;12.77;7.23;;;;;;;;;;5048670;28;20491;-69
2023/04/06 14:22:13;;;;;;;7.70;5.70;;;;;;;;;;5047843;28;20500;-72
2023/04/06 14:24:57;;;;;;;8.83;5.60;;;;;;;;;;5041506;28;20916;-71
2023/04/06 14:27:30;;;;;;;8.10;6.00;;;;;;;;;;5050304;28;20919;-71
2023/04/06 14:30:00;;;;;;;9.07;5.93;;;;;;;;;;5049334;28;20461;-70
2023/04/06 14:32:28;;;;;;;8.67;6.60;;;;;;;;;;5048132;28;20904;-70
2023/04/06 14:34:56;;;;;;;10.27;6.73;;;;;;;;;;5042688;28;20509;-70
2023/04/06 14:37:26;;;;;;;8.63;6.03;;;;;;;;;;5048858;28;20458;-70
2023/04/06 14:39:54;;;;;;;10.53;6.50;;;;;;;;;;5039035;28;20549;-70
2023/04/06 14:42:21;;;;;;;13.20;7.40;;;;;;;;;;5036213;28;20518;-70
2023/04/06 14:47:32;;;;;;;9.63;6.40;;;;;;;;;;5035411;28;20473;-69
2023/04/06 14:50:00;;;;;;;9.30;6.20;;;;;;;;;;5032331;28;20450;-69
2023/04/06 14:52:31;;;;;;;11.07;6.37;;;;;;;;;;5042993;28;20478;-70
2023/04/06 14:55:07;;;;;;;8.17;5.90;;;;;;;;;;5050903;28;20449;-69
2023/04/06 14:57:39;;;;;;;11.13;6.73;;;;;;;;;;5048160;28;20826;-71
2023/04/06 15:00:18;;;;;;;10.77;7.30;;;;;;;;;;5048542;28;20489;-70
2023/04/06 15:02:57;;;;;;;10.47;7.50;;;;;;;;;;5045687;28;20458;-70
2023/04/06 15:05:25;;;;;;;7.57;5.63;;;;;;;;;;5032948;28;20482;-68